Time;durP1;ratioP1;P1;durP2;ratioP2;P2;SDS_P1;SDS_P2;PMS_P1;PMS_P2;Temp;Humidity;BMP_temperature;BMP_pressure;BME280_temperature;BME280_humidity;BME280_pressure;Samples;Min_cycle;Max_cycle;Signal;HPM_P1;HPM_P2
2022/05/29 00:00:14;;;;;;;;;;;27.00;40.00;;;;;;660622;30;899;-85
2022/05/29 00:00:34;;;;;;;;;;;27.00;40.10;;;;;;660461;30;1047;-86
2022/05/29 00:00:55;;;;;;;;;;;27.00;40.00;;;;;;660813;30;893;-85
2022/05/29 00:01:16;;;;;;;;;;;27.00;40.10;;;;;;660629;30;952;-86
2022/05/29 00:01:36;;;;;;;;;;;27.00;40.10;;;;;;660626;30;960;-84
2022/05/29 00:01:57;;;;;;;;;;;26.90;40.00;;;;;;660904;30;1333;-83
2022/05/29 00:02:18;;;;;;;;;;;27.00;40.10;;;;;;660727;30;920;-87
2022/05/29 00:02:39;;;;;;;;;;;27.00;40.10;;;;;;660588;30;1490;-86
2022/05/29 00:02:59;;;;;;;;;;;27.00;40.00;;;;;;660697;30;895;-86
2022/05/29 00:03:20;;;;;;;;;;;27.00;40.10;;;;;;660928;30;952;-86
2022/05/29 00:03:40;;;;;;;;;;;27.00;40.00;;;;;;664233;29;1519;-83
2022/05/29 00:04:01;;;;;;;;;;;27.00;40.00;;;;;;665900;29;1892;-84
2022/05/29 00:04:21;;;;;;;;;;;27.00;40.00;;;;;;665762;29;975;-83
2022/05/29 00:04:42;;;;;;;;;;;27.00;39.90;;;;;;665864;29;894;-83
2022/05/29 00:05:03;;;;;;;;;;;27.00;40.00;;;;;;665580;29;1413;-83
2022/05/29 00:05:23;;;;;;;;;;;27.00;40.00;;;;;;665699;29;1103;-85
2022/05/29 00:05:44;;;;;;;;;;;27.00;40.10;;;;;;663428;29;996;-85
2022/05/29 00:06:05;;;;;;;;;;;27.00;40.00;;;;;;663415;30;1062;-83
2022/05/29 00:06:26;;;;;;;;;;;27.00;40.00;;;;;;663527;30;1162;-80
2022/05/29 00:06:48;;;;;;;;;;;27.00;40.00;;;;;;663426;30;885;-83
2022/05/29 00:07:15;;;;;;;;;;;27.00;40.10;;;;;;663395;29;1015;-82
2022/05/29 00:07:36;;;;;;;;;;;27.00;39.90;;;;;;663321;29;1117;-83
2022/05/29 00:07:57;;;;;;;;;;;27.00;39.90;;;;;;663623;30;933;-84
2022/05/29 00:08:27;;;;;;;;;;;26.90;39.90;;;;;;663579;30;865;-83
2022/05/29 00:08:48;;;;;;;;;;;27.00;40.10;;;;;;661752;30;845;-86
2022/05/29 00:09:09;;;;;;;;;;;27.00;40.00;;;;;;663163;30;905;-86
2022/05/29 00:09:37;;;;;;;;;;;27.00;40.00;;;;;;663416;30;908;-84
2022/05/29 00:09:57;;;;;;;;;;;27.00;40.00;;;;;;663160;30;1388;-83
2022/05/29 00:10:18;;;;;;;;;;;27.00;40.00;;;;;;665314;29;945;-85
2022/05/29 00:10:41;;;;;;;;;;;27.00;40.00;;;;;;665911;29;828;-83
2022/05/29 00:11:01;;;;;;;;;;;27.00;40.20;;;;;;665695;29;1313;-80
2022/05/29 00:11:22;;;;;;;;;;;27.00;40.00;;;;;;665421;29;1138;-84
2022/05/29 00:11:43;;;;;;;;;;;27.00;39.90;;;;;;665396;29;843;-81
2022/05/29 00:12:04;;;;;;;;;;;27.00;40.10;;;;;;664937;29;935;-85
2022/05/29 00:12:24;;;;;;;;;;;27.00;41.00;;;;;;662309;30;1181;-85
2022/05/29 00:12:45;;;;;;;;;;;27.00;39.80;;;;;;662910;30;857;-85
2022/05/29 00:13:05;;;;;;;;;;;27.00;39.90;;;;;;661468;30;810;-86
2022/05/29 00:13:26;;;;;;;;;;;27.00;40.00;;;;;;660487;30;814;-86
2022/05/29 00:13:47;;;;;;;;;;;27.00;40.00;;;;;;660308;30;893;-85
2022/05/29 00:14:07;;;;;;;;;;;27.00;40.10;;;;;;662320;29;888;-86
2022/05/29 00:14:28;;;;;;;;;;;27.00;40.10;;;;;;662767;29;876;-85
2022/05/29 00:14:49;;;;;;;;;;;27.00;40.00;;;;;;662794;29;975;-86
2022/05/29 00:15:11;;;;;;;;;;;27.00;40.00;;;;;;662497;29;880;-85
2022/05/29 00:15:31;;;;;;;;;;;27.00;41.20;;;;;;662610;29;801;-85
2022/05/29 00:15:52;;;;;;;;;;;27.00;40.10;;;;;;662197;29;847;-82
2022/05/29 00:16:13;;;;;;;;;;;27.00;40.20;;;;;;660452;30;960;-86
2022/05/29 00:16:33;;;;;;;;;;;27.00;40.00;;;;;;660261;30;941;-85
2022/05/29 00:16:54;;;;;;;;;;;26.90;39.90;;;;;;660511;30;1105;-85
2022/05/29 00:17:16;;;;;;;;;;;26.90;39.90;;;;;;660243;30;886;-85
2022/05/29 00:17:36;;;;;;;;;;;26.90;39.90;;;;;;659993;30;846;-85
2022/05/29 00:17:57;;;;;;;;;;;26.90;40.10;;;;;;660270;30;987;-84
2022/05/29 00:18:18;;;;;;;;;;;26.90;40.00;;;;;;660217;30;864;-86
2022/05/29 00:18:38;;;;;;;;;;;26.90;40.30;;;;;;660193;30;1483;-86
2022/05/29 00:18:59;;;;;;;;;;;26.90;40.10;;;;;;660121;30;837;-84
2022/05/29 00:19:19;;;;;;;;;;;26.90;40.00;;;;;;660264;30;818;-87
2022/05/29 00:19:40;;;;;;;;;;;26.90;40.10;;;;;;660205;30;908;-86
2022/05/29 00:20:00;;;;;;;;;;;26.90;40.00;;;;;;660258;30;849;-86
2022/05/29 00:20:21;;;;;;;;;;;26.90;39.90;;;;;;660379;30;821;-86
2022/05/29 00:20:44;;;;;;;;;;;26.90;39.90;;;;;;660137;30;825;-86
2022/05/29 00:21:06;;;;;;;;;;;26.90;39.80;;;;;;660199;30;818;-86
2022/05/29 00:21:30;;;;;;;;;;;26.90;39.90;;;;;;660233;30;969;-87
2022/05/29 00:21:51;;;;;;;;;;;26.90;39.90;;;;;;660221;30;912;-85
2022/05/29 00:22:14;;;;;;;;;;;26.90;39.90;;;;;;660731;30;896;-85
2022/05/29 00:22:35;;;;;;;;;;;26.90;39.90;;;;;;660513;30;1391;-85
2022/05/29 00:22:55;;;;;;;;;;;26.90;40.20;;;;;;660557;30;829;-85
2022/05/29 00:23:16;;;;;;;;;;;26.90;40.30;;;;;;660577;30;849;-85
2022/05/29 00:23:40;;;;;;;;;;;26.90;40.20;;;;;;660514;30;885;-85
2022/05/29 00:24:01;;;;;;;;;;;26.90;40.20;;;;;;660419;30;1978;-85
2022/05/29 00:24:22;;;;;;;;;;;26.80;40.00;;;;;;660699;30;877;-85
2022/05/29 00:24:43;;;;;;;;;;;26.90;40.30;;;;;;660624;30;889;-85
2022/05/29 00:25:07;;;;;;;;;;;26.80;40.10;;;;;;660651;30;920;-84
2022/05/29 00:25:27;;;;;;;;;;;26.80;40.10;;;;;;660305;30;1462;-85
2022/05/29 00:25:49;;;;;;;;;;;26.80;40.20;;;;;;660568;30;884;-85
2022/05/29 00:26:10;;;;;;;;;;;26.80;40.20;;;;;;660414;30;868;-86
2022/05/29 00:26:30;;;;;;;;;;;26.80;40.30;;;;;;660570;30;794;-85
2022/05/29 00:26:51;;;;;;;;;;;26.80;40.20;;;;;;660578;30;932;-87
2022/05/29 00:27:12;;;;;;;;;;;26.80;40.30;;;;;;660502;30;797;-85
2022/05/29 00:27:33;;;;;;;;;;;26.90;40.20;;;;;;660632;30;817;-85
2022/05/29 00:27:53;;;;;;;;;;;26.80;40.20;;;;;;660830;30;853;-86
2022/05/29 00:28:14;;;;;;;;;;;26.80;40.20;;;;;;660602;30;888;-85
2022/05/29 00:28:35;;;;;;;;;;;26.80;40.10;;;;;;660304;30;1249;-86
2022/05/29 00:28:55;;;;;;;;;;;26.80;40.10;;;;;;660531;30;849;-86
2022/05/29 00:29:16;;;;;;;;;;;26.80;40.10;;;;;;660288;30;1218;-85
2022/05/29 00:29:37;;;;;;;;;;;26.90;40.10;;;;;;660481;30;821;-85
2022/05/29 00:29:57;;;;;;;;;;;26.80;40.10;;;;;;660530;30;798;-84
2022/05/29 00:30:18;;;;;;;;;;;26.80;40.10;;;;;;660497;30;845;-85
2022/05/29 00:30:40;;;;;;;;;;;26.80;40.40;;;;;;659784;29;1061;-82
2022/05/29 00:31:01;;;;;;;;;;;26.80;40.30;;;;;;662653;29;1526;-83
2022/05/29 00:31:21;;;;;;;;;;;26.80;40.20;;;;;;663274;29;825;-85
2022/05/29 00:31:42;;;;;;;;;;;26.80;40.10;;;;;;663304;29;904;-84
2022/05/29 00:32:03;;;;;;;;;;;26.80;40.20;;;;;;663296;29;805;-84
2022/05/29 00:32:24;;;;;;;;;;;26.80;40.10;;;;;;663093;29;763;-86
2022/05/29 00:32:44;;;;;;;;;;;26.80;40.00;;;;;;663249;29;1217;-85
2022/05/29 00:33:05;;;;;;;;;;;26.80;40.30;;;;;;663284;29;882;-86
2022/05/29 00:33:26;;;;;;;;;;;26.80;40.00;;;;;;663089;29;847;-85
2022/05/29 00:33:46;;;;;;;;;;;26.80;40.10;;;;;;663263;29;873;-85
2022/05/29 00:34:07;;;;;;;;;;;26.80;40.00;;;;;;663212;29;792;-86
2022/05/29 00:34:27;;;;;;;;;;;26.80;40.10;;;;;;663188;29;901;-85
2022/05/29 00:34:48;;;;;;;;;;;26.80;40.10;;;;;;663323;29;868;-85
2022/05/29 00:35:10;;;;;;;;;;;26.80;40.10;;;;;;663157;29;817;-85
2022/05/29 00:35:31;;;;;;;;;;;26.80;40.20;;;;;;663074;29;904;-85
2022/05/29 00:35:52;;;;;;;;;;;26.80;40.10;;;;;;663127;29;829;-85
2022/05/29 00:36:14;;;;;;;;;;;26.80;40.10;;;;;;663055;29;892;-85
2022/05/29 00:36:38;;;;;;;;;;;26.80;40.10;;;;;;663046;29;786;-85
2022/05/29 00:36:59;;;;;;;;;;;26.80;40.00;;;;;;663086;29;1012;-85
2022/05/29 00:37:19;;;;;;;;;;;26.80;40.10;;;;;;663226;29;853;-86
2022/05/29 00:37:40;;;;;;;;;;;26.80;40.20;;;;;;663008;29;1103;-85
2022/05/29 00:38:01;;;;;;;;;;;26.80;40.10;;;;;;663043;29;817;-85
2022/05/29 00:38:21;;;;;;;;;;;26.80;40.10;;;;;;663252;29;864;-87
2022/05/29 00:38:43;;;;;;;;;;;26.80;40.10;;;;;;663017;29;968;-83
2022/05/29 00:39:04;;;;;;;;;;;26.80;40.10;;;;;;663078;29;950;-85
2022/05/29 00:39:25;;;;;;;;;;;26.80;40.20;;;;;;663241;29;824;-85
2022/05/29 00:39:47;;;;;;;;;;;26.80;40.20;;;;;;663090;29;789;-84
2022/05/29 00:40:30;;;;;;;;;;;26.80;40.30;;;;;;663187;29;899;-85
2022/05/29 00:40:55;;;;;;;;;;;26.70;40.00;;;;;;663203;29;793;-85
2022/05/29 00:41:32;;;;;;;;;;;26.80;40.30;;;;;;663065;29;892;-85
2022/05/29 00:41:53;;;;;;;;;;;26.70;40.20;;;;;;663143;29;888;-85
2022/05/29 00:42:15;;;;;;;;;;;26.70;40.00;;;;;;663036;29;887;-85
2022/05/29 00:42:35;;;;;;;;;;;26.70;40.10;;;;;;663030;29;816;-84
2022/05/29 00:42:56;;;;;;;;;;;26.80;40.40;;;;;;662805;29;1709;-85
2022/05/29 00:43:17;;;;;;;;;;;26.80;40.30;;;;;;662925;29;888;-85
2022/05/29 00:43:37;;;;;;;;;;;26.80;40.30;;;;;;662969;29;1401;-86
2022/05/29 00:44:18;;;;;;;;;;;26.70;40.20;;;;;;662842;29;2036;-85
2022/05/29 00:44:38;;;;;;;;;;;26.70;40.30;;;;;;662853;29;1092;-86
2022/05/29 00:44:59;;;;;;;;;;;26.70;40.30;;;;;;663071;29;858;-85
2022/05/29 00:45:20;;;;;;;;;;;26.70;40.20;;;;;;663210;29;848;-86
2022/05/29 00:45:49;;;;;;;;;;;26.70;40.30;;;;;;662841;29;1010;-86
2022/05/29 00:46:12;;;;;;;;;;;26.70;40.40;;;;;;662962;29;920;-86
2022/05/29 00:46:34;;;;;;;;;;;26.70;41.40;;;;;;662992;29;809;-84
2022/05/29 00:47:20;;;;;;;;;;;26.70;40.20;;;;;;663228;29;1026;-86
2022/05/29 00:47:41;;;;;;;;;;;26.70;40.10;;;;;;661027;29;1077;-85
2022/05/29 00:48:04;;;;;;;;;;;26.70;40.40;;;;;;663113;29;876;-84
2022/05/29 00:48:25;;;;;;;;;;;26.70;40.30;;;;;;663136;29;856;-86
2022/05/29 00:48:46;;;;;;;;;;;26.70;40.30;;;;;;663099;29;795;-86
2022/05/29 00:49:07;;;;;;;;;;;26.70;40.30;;;;;;662889;29;1330;-86
2022/05/29 00:49:31;;;;;;;;;;;26.70;40.30;;;;;;662960;29;914;-85
2022/05/29 00:49:52;;;;;;;;;;;26.70;40.30;;;;;;663219;29;820;-82
2022/05/29 00:50:13;;;;;;;;;;;26.70;40.40;;;;;;663048;29;884;-86
2022/05/29 00:50:33;;;;;;;;;;;26.70;40.40;;;;;;663099;29;816;-85
2022/05/29 00:50:57;;;;;;;;;;;26.70;40.50;;;;;;663203;29;892;-85
2022/05/29 00:51:22;;;;;;;;;;;26.70;40.40;;;;;;663109;29;939;-86
2022/05/29 00:51:49;;;;;;;;;;;26.70;40.40;;;;;;663169;29;813;-84
2022/05/29 00:52:16;;;;;;;;;;;26.70;40.30;;;;;;662981;29;868;-85
2022/05/29 00:52:38;;;;;;;;;;;26.70;41.50;;;;;;663067;29;826;-85
2022/05/29 00:52:58;;;;;;;;;;;26.70;40.30;;;;;;662928;29;884;-84
2022/05/29 00:53:20;;;;;;;;;;;26.70;40.30;;;;;;663216;29;970;-85
2022/05/29 00:53:41;;;;;;;;;;;26.60;40.20;;;;;;662821;29;1813;-86
2022/05/29 00:54:02;;;;;;;;;;;26.70;40.30;;;;;;663096;29;840;-86
2022/05/29 00:54:22;;;;;;;;;;;26.60;40.30;;;;;;664916;29;818;-84
2022/05/29 00:54:53;;;;;;;;;;;26.70;40.30;;;;;;665358;29;899;-85
2022/05/29 00:55:19;;;;;;;;;;;26.60;40.10;;;;;;665393;29;824;-85
2022/05/29 00:55:47;;;;;;;;;;;26.60;40.10;;;;;;665269;29;922;-85
2022/05/29 00:56:08;;;;;;;;;;;26.70;40.10;;;;;;665004;29;879;-85
2022/05/29 00:56:29;;;;;;;;;;;26.60;40.10;;;;;;663012;29;952;-85
2022/05/29 00:56:50;;;;;;;;;;;26.70;40.20;;;;;;663025;29;987;-85
2022/05/29 00:57:15;;;;;;;;;;;26.70;40.30;;;;;;663115;29;809;-85
2022/05/29 00:57:39;;;;;;;;;;;26.70;40.40;;;;;;662887;29;884;-85
2022/05/29 00:58:01;;;;;;;;;;;26.60;40.20;;;;;;663066;29;852;-85
2022/05/29 00:58:22;;;;;;;;;;;26.70;40.40;;;;;;663084;29;966;-83
2022/05/29 00:58:44;;;;;;;;;;;26.70;40.50;;;;;;662949;29;888;-84
2022/05/29 00:59:06;;;;;;;;;;;26.70;40.50;;;;;;663054;29;805;-85
2022/05/29 00:59:28;;;;;;;;;;;26.70;40.50;;;;;;662962;29;974;-82
2022/05/29 00:59:49;;;;;;;;;;;26.70;40.60;;;;;;663032;29;833;-84
2022/05/29 01:00:12;;;;;;;;;;;26.60;40.50;;;;;;662904;29;797;-86
2022/05/29 01:00:33;;;;;;;;;;;26.70;40.50;;;;;;662985;29;1315;-85
2022/05/29 01:00:55;;;;;;;;;;;26.70;40.40;;;;;;663126;29;797;-85
2022/05/29 01:01:16;;;;;;;;;;;26.70;40.40;;;;;;663015;29;812;-86
2022/05/29 01:01:36;;;;;;;;;;;26.70;40.50;;;;;;663052;29;860;-85
2022/05/29 01:02:00;;;;;;;;;;;26.70;40.40;;;;;;662977;29;974;-85
2022/05/29 01:02:20;;;;;;;;;;;26.70;40.30;;;;;;663187;29;915;-85
2022/05/29 01:02:42;;;;;;;;;;;26.70;40.30;;;;;;663074;29;828;-85
2022/05/29 01:03:03;;;;;;;;;;;26.70;40.40;;;;;;663086;29;808;-84
2022/05/29 01:03:24;;;;;;;;;;;26.70;40.30;;;;;;663023;29;928;-86
2022/05/29 01:03:44;;;;;;;;;;;26.70;40.20;;;;;;663024;29;880;-84
2022/05/29 01:04:05;;;;;;;;;;;26.70;40.10;;;;;;662948;29;1972;-85
2022/05/29 01:04:25;;;;;;;;;;;26.70;40.20;;;;;;663068;29;833;-85
2022/05/29 01:04:46;;;;;;;;;;;26.80;40.40;;;;;;662931;29;960;-85
2022/05/29 01:05:08;;;;;;;;;;;26.70;40.30;;;;;;663037;29;908;-85
2022/05/29 01:05:30;;;;;;;;;;;26.80;40.30;;;;;;663018;29;879;-84
2022/05/29 01:05:51;;;;;;;;;;;26.80;40.30;;;;;;663041;29;824;-85
2022/05/29 01:06:11;;;;;;;;;;;26.80;40.20;;;;;;662991;29;895;-85
2022/05/29 01:06:33;;;;;;;;;;;26.80;40.30;;;;;;663148;29;801;-83
2022/05/29 01:06:54;;;;;;;;;;;26.80;40.20;;;;;;663114;29;877;-85
2022/05/29 01:07:15;;;;;;;;;;;26.80;40.30;;;;;;663045;29;908;-85
2022/05/29 01:07:36;;;;;;;;;;;26.80;40.40;;;;;;662985;29;817;-85
2022/05/29 01:07:59;;;;;;;;;;;26.80;40.40;;;;;;663130;29;809;-85
2022/05/29 01:08:28;;;;;;;;;;;26.80;40.50;;;;;;663047;29;821;-85
2022/05/29 01:08:49;;;;;;;;;;;26.80;40.20;;;;;;662949;29;1325;-83
2022/05/29 01:09:10;;;;;;;;;;;26.80;40.20;;;;;;663082;29;873;-85
2022/05/29 01:09:31;;;;;;;;;;;26.80;40.00;;;;;;662998;29;801;-85
2022/05/29 01:09:52;;;;;;;;;;;26.80;40.10;;;;;;662940;29;892;-83
2022/05/29 01:10:13;;;;;;;;;;;26.80;40.30;;;;;;663044;29;813;-85
2022/05/29 01:10:39;;;;;;;;;;;26.80;40.10;;;;;;663118;29;793;-83
2022/05/29 01:11:06;;;;;;;;;;;26.80;40.00;;;;;;662982;29;907;-83
2022/05/29 01:11:34;;;;;;;;;;;26.80;40.10;;;;;;663080;29;916;-85
2022/05/29 01:11:57;;;;;;;;;;;26.80;40.00;;;;;;663093;29;821;-83
2022/05/29 01:12:17;;;;;;;;;;;26.80;40.10;;;;;;663017;29;889;-84
2022/05/29 01:12:41;;;;;;;;;;;26.80;40.10;;;;;;663032;29;900;-85
2022/05/29 01:13:09;;;;;;;;;;;26.80;40.00;;;;;;662997;29;847;-81
2022/05/29 01:13:33;;;;;;;;;;;26.80;40.10;;;;;;662991;29;789;-85
2022/05/29 01:13:54;;;;;;;;;;;26.80;40.10;;;;;;663073;29;841;-83
2022/05/29 01:14:33;;;;;;;;;;;26.80;40.00;;;;;;662975;29;864;-81
2022/05/29 01:15:12;;;;;;;;;;;26.80;39.90;;;;;;663070;29;967;-81
2022/05/29 01:15:48;;;;;;;;;;;26.80;39.90;;;;;;662987;29;841;-85
2022/05/29 01:16:16;;;;;;;;;;;26.80;39.90;;;;;;662850;29;833;-84
2022/05/29 01:16:39;;;;;;;;;;;26.80;40.00;;;;;;662958;29;801;-85
2022/05/29 01:17:06;;;;;;;;;;;26.80;39.90;;;;;;662954;29;1006;-82
2022/05/29 01:17:44;;;;;;;;;;;26.80;39.90;;;;;;663120;29;872;-81
2022/05/29 01:18:24;;;;;;;;;;;26.80;39.80;;;;;;662967;29;988;-82
2022/05/29 01:18:53;;;;;;;;;;;26.80;39.80;;;;;;665175;29;1559;-84
2022/05/29 01:19:32;;;;;;;;;;;26.80;40.00;;;;;;665251;29;923;-81
2022/05/29 01:20:02;;;;;;;;;;;26.90;40.10;;;;;;665505;29;809;-84
2022/05/29 01:20:41;;;;;;;;;;;26.90;39.90;;;;;;665490;29;888;-85
2022/05/29 01:21:20;;;;;;;;;;;26.80;39.80;;;;;;663029;29;852;-82
2022/05/29 01:21:50;;;;;;;;;;;26.80;39.70;;;;;;662990;29;904;-84
2022/05/29 01:22:14;;;;;;;;;;;26.80;39.70;;;;;;662891;29;813;-86
2022/05/29 01:22:34;;;;;;;;;;;26.80;39.70;;;;;;663075;29;832;-85
2022/05/29 01:23:18;;;;;;;;;;;26.80;39.80;;;;;;663009;29;858;-85
2022/05/29 01:23:39;;;;;;;;;;;26.80;39.70;;;;;;662996;29;896;-85
2022/05/29 01:24:05;;;;;;;;;;;26.80;39.70;;;;;;662949;29;1900;-83
2022/05/29 01:24:26;;;;;;;;;;;26.80;39.80;;;;;;663139;29;905;-83
2022/05/29 01:25:07;;;;;;;;;;;26.80;39.60;;;;;;662951;29;872;-84
2022/05/29 01:25:46;;;;;;;;;;;26.80;39.60;;;;;;662899;29;1085;-85
2022/05/29 01:26:21;;;;;;;;;;;26.80;39.60;;;;;;662812;29;821;-83
2022/05/29 01:27:03;;;;;;;;;;;26.90;39.80;;;;;;662974;29;904;-83
2022/05/29 01:27:42;;;;;;;;;;;26.90;39.70;;;;;;662800;29;1754;-85
2022/05/29 01:28:08;;;;;;;;;;;26.90;39.70;;;;;;663052;29;900;-85
2022/05/29 01:28:32;;;;;;;;;;;26.90;39.70;;;;;;662979;29;923;-84
2022/05/29 01:28:55;;;;;;;;;;;26.80;39.60;;;;;;663370;29;932;-84
2022/05/29 01:29:17;;;;;;;;;;;26.80;39.60;;;;;;663042;29;809;-84
2022/05/29 01:29:46;;;;;;;;;;;26.80;39.60;;;;;;662953;29;865;-84
2022/05/29 01:30:14;;;;;;;;;;;26.90;39.50;;;;;;662973;29;793;-85
2022/05/29 01:30:38;;;;;;;;;;;26.90;39.60;;;;;;663017;29;865;-84
2022/05/29 01:31:02;;;;;;;;;;;26.90;39.60;;;;;;663004;29;995;-84
2022/05/29 01:31:22;;;;;;;;;;;26.90;39.70;;;;;;663059;29;853;-83
2022/05/29 01:32:00;;;;;;;;;;;26.90;39.60;;;;;;663026;29;797;-84
2022/05/29 01:32:27;;;;;;;;;;;26.80;39.60;;;;;;663067;29;916;-85
2022/05/29 01:32:53;;;;;;;;;;;26.80;39.50;;;;;;663118;29;829;-84
2022/05/29 01:33:27;;;;;;;;;;;26.90;39.60;;;;;;662838;29;837;-84
2022/05/29 01:33:54;;;;;;;;;;;26.80;39.50;;;;;;662677;29;874;-84
2022/05/29 01:34:26;;;;;;;;;;;26.80;39.60;;;;;;662936;29;876;-84
2022/05/29 01:34:50;;;;;;;;;;;26.80;39.60;;;;;;662709;29;1355;-84
2022/05/29 01:35:13;;;;;;;;;;;26.80;39.60;;;;;;665195;29;860;-82
2022/05/29 01:35:35;;;;;;;;;;;26.80;39.70;;;;;;665315;29;594;-82
2022/05/29 01:36:10;;;;;;;;;;;26.80;39.60;;;;;;665477;29;855;-86
2022/05/29 01:36:31;;;;;;;;;;;26.80;39.50;;;;;;664972;29;840;-85
2022/05/29 01:37:10;;;;;;;;;;;26.80;39.50;;;;;;662983;29;1324;-84
2022/05/29 01:37:51;;;;;;;;;;;26.80;39.60;;;;;;662780;29;905;-83
2022/05/29 01:38:16;;;;;;;;;;;26.80;39.60;;;;;;662868;29;883;-85
2022/05/29 01:38:53;;;;;;;;;;;28.10;40.50;;;;;;662975;29;885;-84
2022/05/29 01:39:24;;;;;;;;;;;26.80;39.60;;;;;;662942;29;929;-85
2022/05/29 01:39:58;;;;;;;;;;;26.80;39.60;;;;;;662912;29;825;-85
2022/05/29 01:40:31;;;;;;;;;;;26.80;39.60;;;;;;663012;29;872;-84
2022/05/29 01:40:58;;;;;;;;;;;26.80;39.70;;;;;;663069;29;877;-84
2022/05/29 01:41:22;;;;;;;;;;;26.80;39.70;;;;;;663159;29;797;-84
2022/05/29 01:41:52;;;;;;;;;;;26.80;39.70;;;;;;662935;29;845;-84
2022/05/29 01:42:17;;;;;;;;;;;26.80;39.50;;;;;;662973;29;893;-84
2022/05/29 01:42:42;;;;;;;;;;;26.80;39.60;;;;;;662941;29;937;-83
2022/05/29 01:43:05;;;;;;;;;;;26.70;39.60;;;;;;662924;29;900;-82
2022/05/29 01:43:41;;;;;;;;;;;26.80;39.80;;;;;;662898;29;1327;-84
2022/05/29 01:44:17;;;;;;;;;;;26.70;39.80;;;;;;663013;29;1971;-84
2022/05/29 01:44:43;;;;;;;;;;;26.80;39.60;;;;;;662805;29;827;-84
2022/05/29 01:45:09;;;;;;;;;;;26.70;39.90;;;;;;662912;29;1109;-84
2022/05/29 01:45:54;;;;;;;;;;;26.70;39.60;;;;;;662841;29;876;-84
2022/05/29 01:46:17;;;;;;;;;;;26.70;39.60;;;;;;662803;29;841;-83
2022/05/29 01:46:38;;;;;;;;;;;26.70;39.60;;;;;;662833;29;845;-83
2022/05/29 01:47:04;;;;;;;;;;;26.70;39.80;;;;;;662835;29;1010;-84
2022/05/29 01:47:31;;;;;;;;;;;26.70;39.60;;;;;;662638;29;1252;-83
2022/05/29 01:48:17;;;;;;;;;;;26.70;39.60;;;;;;662896;29;904;-86
2022/05/29 01:48:46;;;;;;;;;;;26.70;40.90;;;;;;660723;29;1213;-85
2022/05/29 01:49:07;;;;;;;;;;;26.70;39.70;;;;;;664426;29;1260;-86
2022/05/29 01:49:29;;;;;;;;;;;26.70;39.60;;;;;;662916;29;821;-84
2022/05/29 01:49:51;;;;;;;;;;;26.60;39.50;;;;;;662937;29;856;-83
2022/05/29 01:50:16;;;;;;;;;;;26.70;39.60;;;;;;662881;29;856;-84
2022/05/29 01:50:57;;;;;;;;;;;26.60;39.50;;;;;;662920;29;904;-81
2022/05/29 01:51:19;;;;;;;;;;;26.60;39.60;;;;;;663041;29;805;-85
2022/05/29 01:52:06;;;;;;;;;;;26.60;39.50;;;;;;662897;29;955;-86
2022/05/29 01:52:30;;;;;;;;;;;26.60;39.60;;;;;;655207;30;1168;-84
2022/05/29 01:52:56;;;;;;;;;;;26.60;39.50;;;;;;655248;30;1476;-85
2022/05/29 01:53:20;;;;;;;;;;;26.60;39.50;;;;;;655185;30;1123;-84
2022/05/29 01:53:43;;;;;;;;;;;26.60;39.70;;;;;;655143;30;528;-84
2022/05/29 01:54:06;;;;;;;;;;;26.60;39.80;;;;;;655232;30;805;-84
2022/05/29 01:54:32;;;;;;;;;;;26.60;39.80;;;;;;655384;30;830;-84
2022/05/29 01:54:55;;;;;;;;;;;26.60;39.80;;;;;;655176;30;993;-85
2022/05/29 01:55:22;;;;;;;;;;;26.60;39.80;;;;;;655255;30;822;-86
2022/05/29 01:55:47;;;;;;;;;;;26.60;39.80;;;;;;655216;30;893;-84
2022/05/29 01:56:18;;;;;;;;;;;26.60;39.90;;;;;;655144;30;957;-85
2022/05/29 01:56:50;;;;;;;;;;;26.60;39.90;;;;;;655120;30;1460;-85
2022/05/29 01:57:25;;;;;;;;;;;26.60;39.90;;;;;;655240;30;875;-86
2022/05/29 01:57:48;;;;;;;;;;;26.60;39.90;;;;;;655080;30;796;-85
2022/05/29 01:58:12;;;;;;;;;;;26.60;39.80;;;;;;655165;30;1267;-85
2022/05/29 01:58:37;;;;;;;;;;;26.60;39.80;;;;;;655216;30;968;-85
2022/05/29 01:59:00;;;;;;;;;;;26.60;39.80;;;;;;655255;30;853;-82
2022/05/29 01:59:34;;;;;;;;;;;26.60;39.90;;;;;;655356;30;774;-86
2022/05/29 02:00:09;;;;;;;;;;;26.60;39.90;;;;;;655307;30;924;-85
2022/05/29 02:00:31;;;;;;;;;;;26.60;39.80;;;;;;655092;30;882;-84
2022/05/29 02:00:53;;;;;;;;;;;26.60;39.70;;;;;;654755;30;1067;-84
2022/05/29 02:01:15;;;;;;;;;;;26.60;39.80;;;;;;655200;30;807;-85
2022/05/29 02:01:39;;;;;;;;;;;26.50;39.60;;;;;;655278;30;869;-86
2022/05/29 02:02:03;;;;;;;;;;;26.50;39.60;;;;;;655228;30;869;-85
2022/05/29 02:02:26;;;;;;;;;;;26.60;39.80;;;;;;655430;30;837;-84
2022/05/29 02:02:49;;;;;;;;;;;26.50;39.70;;;;;;655161;30;849;-83
2022/05/29 02:03:22;;;;;;;;;;;26.50;39.80;;;;;;655137;30;1023;-84
2022/05/29 02:03:45;;;;;;;;;;;26.50;39.70;;;;;;657469;30;898;-83
2022/05/29 02:04:08;;;;;;;;;;;26.50;39.90;;;;;;657560;30;1904;-85
2022/05/29 02:04:30;;;;;;;;;;;26.50;40.00;;;;;;657684;30;979;-85
2022/05/29 02:04:53;;;;;;;;;;;26.50;39.90;;;;;;657634;30;885;-85
2022/05/29 02:05:16;;;;;;;;;;;26.50;39.80;;;;;;657734;30;932;-85
2022/05/29 02:05:45;;;;;;;;;;;26.50;40.10;;;;;;657691;30;810;-85
2022/05/29 02:06:18;;;;;;;;;;;26.50;41.10;;;;;;657674;30;1025;-83
2022/05/29 02:08:07;;;;;;;;;;;26.50;40.00;;;;;;657647;30;616;-83
2022/05/29 02:08:32;;;;;;;;;;;26.50;39.90;;;;;;657675;30;913;-84
2022/05/29 02:09:01;;;;;;;;;;;26.50;40.00;;;;;;657694;30;889;-84
2022/05/29 02:09:22;;;;;;;;;;;26.50;41.00;;;;;;657659;30;1149;-84
2022/05/29 02:09:45;;;;;;;;;;;26.50;40.20;;;;;;657641;30;909;-84
2022/05/29 02:10:10;;;;;;;;;;;26.50;40.10;;;;;;657682;30;948;-84
2022/05/29 02:10:37;;;;;;;;;;;26.50;40.00;;;;;;657615;30;840;-84
2022/05/29 02:11:04;;;;;;;;;;;26.50;40.00;;;;;;657582;30;1099;-84
2022/05/29 02:11:26;;;;;;;;;;;26.50;40.00;;;;;;657816;30;900;-84
2022/05/29 02:11:49;;;;;;;;;;;26.50;40.10;;;;;;657714;30;794;-84
2022/05/29 02:12:13;;;;;;;;;;;26.50;40.10;;;;;;657611;30;875;-85
2022/05/29 02:12:35;;;;;;;;;;;26.50;40.20;;;;;;657610;30;912;-84
2022/05/29 02:12:58;;;;;;;;;;;26.50;40.10;;;;;;657730;30;976;-85
2022/05/29 02:13:31;;;;;;;;;;;26.50;40.00;;;;;;657808;30;829;-85
2022/05/29 02:14:06;;;;;;;;;;;26.50;40.00;;;;;;657740;30;790;-84
2022/05/29 02:14:31;;;;;;;;;;;26.50;40.10;;;;;;657707;30;837;-83
2022/05/29 02:14:54;;;;;;;;;;;26.50;40.20;;;;;;657738;30;821;-83
2022/05/29 02:15:16;;;;;;;;;;;26.50;40.20;;;;;;657602;30;897;-84
2022/05/29 02:15:52;;;;;;;;;;;26.50;40.20;;;;;;657689;30;786;-85
2022/05/29 02:16:17;;;;;;;;;;;26.50;40.30;;;;;;657649;30;872;-84
2022/05/29 02:16:52;;;;;;;;;;;26.50;40.20;;;;;;657687;30;813;-85
2022/05/29 02:17:17;;;;;;;;;;;26.50;40.10;;;;;;657581;30;907;-84
2022/05/29 02:17:40;;;;;;;;;;;26.50;40.30;;;;;;657596;30;940;-84
2022/05/29 02:18:02;;;;;;;;;;;26.50;40.20;;;;;;657535;30;976;-83
2022/05/29 02:18:26;;;;;;;;;;;26.50;40.00;;;;;;657759;30;912;-83
2022/05/29 02:18:52;;;;;;;;;;;26.50;40.10;;;;;;657664;30;991;-83
2022/05/29 02:19:18;;;;;;;;;;;26.50;40.40;;;;;;657555;30;888;-83
2022/05/29 02:19:58;;;;;;;;;;;26.50;40.40;;;;;;657507;30;805;-83
2022/05/29 02:20:24;;;;;;;;;;;26.50;40.30;;;;;;657803;30;849;-83
2022/05/29 02:20:47;;;;;;;;;;;26.50;40.20;;;;;;657652;30;806;-83
2022/05/29 02:21:11;;;;;;;;;;;26.50;40.10;;;;;;657640;30;890;-83
2022/05/29 02:21:41;;;;;;;;;;;26.50;40.20;;;;;;657617;30;932;-82
2022/05/29 02:22:02;;;;;;;;;;;26.50;40.00;;;;;;657582;30;918;-83
2022/05/29 02:22:27;;;;;;;;;;;26.50;40.00;;;;;;657730;30;924;-84
2022/05/29 02:22:49;;;;;;;;;;;26.60;40.10;;;;;;657736;30;845;-84
2022/05/29 02:23:14;;;;;;;;;;;26.60;40.00;;;;;;657578;30;909;-84
2022/05/29 02:23:37;;;;;;;;;;;26.60;40.10;;;;;;657698;30;911;-83
2022/05/29 02:24:00;;;;;;;;;;;26.60;40.10;;;;;;657510;30;2020;-84
2022/05/29 02:24:22;;;;;;;;;;;26.60;40.10;;;;;;657623;30;1910;-83
2022/05/29 02:24:50;;;;;;;;;;;26.60;40.00;;;;;;657581;30;1818;-84
2022/05/29 02:25:12;;;;;;;;;;;26.60;40.00;;;;;;657734;30;905;-82
2022/05/29 02:25:34;;;;;;;;;;;26.60;40.10;;;;;;657639;30;779;-84
2022/05/29 02:26:03;;;;;;;;;;;26.60;40.00;;;;;;657737;30;852;-84
2022/05/29 02:26:27;;;;;;;;;;;26.60;40.10;;;;;;657852;30;837;-84
2022/05/29 02:27:06;;;;;;;;;;;26.60;40.00;;;;;;657746;30;885;-84
2022/05/29 02:27:29;;;;;;;;;;;26.60;39.90;;;;;;657713;30;854;-83
2022/05/29 02:27:56;;;;;;;;;;;26.60;40.10;;;;;;657769;30;897;-84
2022/05/29 02:28:30;;;;;;;;;;;26.60;40.00;;;;;;657747;30;917;-84
2022/05/29 02:28:52;;;;;;;;;;;26.60;39.80;;;;;;657637;30;1443;-84
2022/05/29 02:29:14;;;;;;;;;;;26.60;39.80;;;;;;657520;30;2046;-84
2022/05/29 02:29:35;;;;;;;;;;;26.60;39.90;;;;;;657665;30;809;-84
2022/05/29 02:29:56;;;;;;;;;;;26.70;40.10;;;;;;657700;30;944;-84
2022/05/29 02:30:18;;;;;;;;;;;26.60;40.00;;;;;;659881;29;1112;-84
2022/05/29 02:30:48;;;;;;;;;;;26.60;39.90;;;;;;662917;29;869;-85